Time;durP1;ratioP1;P1;durP2;ratioP2;P2;SDS_P1;SDS_P2;PMS_P1;PMS_P2;Temp;Humidity;BMP_temperature;BMP_pressure;BME280_temperature;BME280_humidity;BME280_pressure;Samples;Min_cycle;Max_cycle;Signal;HPM_P1;HPM_P2
2022/01/05 00:01:08;;;;;;;12.27;3.20;;;13.80;96.60;;;;;;5052465;28;20053;-65
2022/01/05 00:03:35;;;;;;;7.35;2.50;;;13.80;96.60;;;;;;5052454;28;20036;-65
2022/01/05 00:06:03;;;;;;;8.70;2.60;;;13.80;96.40;;;;;;5052669;28;20025;-63
2022/01/05 00:08:29;;;;;;;11.00;2.78;;;13.90;96.20;;;;;;5052718;28;20029;-64
2022/01/05 00:10:55;;;;;;;9.18;2.60;;;14.00;96.30;;;;;;5052814;28;20482;-65
2022/01/05 00:13:21;;;;;;;10.80;2.97;;;14.00;96.00;;;;;;5052667;28;20040;-64
2022/01/05 00:15:47;;;;;;;11.32;3.15;;;14.00;95.90;;;;;;5052877;28;20029;-64
2022/01/05 00:18:13;;;;;;;8.70;2.60;;;14.10;95.90;;;;;;5052949;28;20035;-64
2022/01/05 00:20:39;;;;;;;10.93;2.80;;;14.10;95.70;;;;;;5052498;28;20415;-64
2022/01/05 00:23:04;;;;;;;7.35;2.90;;;14.10;95.70;;;;;;5052697;28;20029;-65
2022/01/05 00:25:30;;;;;;;8.25;3.00;;;14.10;95.70;;;;;;5052583;28;20017;-66
2022/01/05 00:27:56;;;;;;;8.10;2.67;;;14.10;95.50;;;;;;5052580;28;20025;-64
2022/01/05 00:30:22;;;;;;;10.13;2.92;;;14.10;95.50;;;;;;5052527;28;20079;-65
2022/01/05 00:32:47;;;;;;;8.88;2.80;;;14.20;95.50;;;;;;5052879;28;20033;-64
2022/01/05 00:35:13;;;;;;;7.55;2.78;;;14.20;95.50;;;;;;5052647;28;20028;-64
2022/01/05 00:37:39;;;;;;;8.40;2.70;;;14.10;95.40;;;;;;5052335;28;20039;-64
2022/01/05 00:40:06;;;;;;;7.65;2.80;;;14.10;95.40;;;;;;5052474;28;20457;-68
2022/01/05 00:42:32;;;;;;;9.10;2.90;;;14.10;95.50;;;;;;5051105;28;20037;-63
2022/01/05 00:44:58;;;;;;;8.48;2.72;;;14.10;95.50;;;;;;5052613;28;20490;-66
2022/01/05 00:47:24;;;;;;;7.97;3.17;;;14.00;95.50;;;;;;5052140;28;20382;-64
2022/01/05 00:49:50;;;;;;;13.20;3.03;;;14.00;95.60;;;;;;5052371;28;20029;-70
2022/01/05 00:52:16;;;;;;;12.60;3.20;;;14.00;95.60;;;;;;5052408;28;20021;-63
2022/01/05 00:54:42;;;;;;;9.57;3.08;;;14.00;95.60;;;;;;5052185;28;20505;-64
2022/01/05 00:57:09;;;;;;;10.13;2.72;;;14.00;95.60;;;;;;5052289;28;20173;-65
2022/01/05 00:59:35;;;;;;;7.65;2.80;;;14.00;95.50;;;;;;5052581;28;20048;-64
2022/01/05 01:02:00;;;;;;;10.18;3.08;;;14.10;95.50;;;;;;5051856;28;20048;-72
2022/01/05 01:04:26;;;;;;;8.10;3.47;;;14.10;95.50;;;;;;5052139;28;20033;-64
2022/01/05 01:06:52;;;;;;;11.63;3.05;;;14.10;95.30;;;;;;5052007;28;20051;-67
2022/01/05 01:09:18;;;;;;;10.68;3.63;;;14.10;95.40;;;;;;5054672;28;20078;-68
2022/01/05 01:11:43;;;;;;;9.15;3.50;;;14.10;95.20;;;;;;5055769;28;20375;-64
2022/01/05 01:14:10;;;;;;;12.38;3.95;;;14.10;95.20;;;;;;5056129;28;20091;-69
2022/01/05 01:16:35;;;;;;;9.90;4.20;;;14.10;95.10;;;;;;5055791;28;20048;-71
2022/01/05 01:19:02;;;;;;;11.60;5.03;;;14.10;95.10;;;;;;5055533;28;20055;-64
2022/01/05 01:21:27;;;;;;;9.75;4.93;;;14.10;95.10;;;;;;5055729;28;20116;-67
2022/01/05 01:23:57;;;;;;;13.65;5.82;;;14.10;95.10;;;;;;5055786;28;20025;-71
2022/01/05 01:26:29;;;;;;;13.60;5.72;;;14.10;95.10;;;;;;5054492;28;20055;-67
2022/01/05 01:28:56;;;;;;;10.70;4.93;;;14.10;95.20;;;;;;5054127;28;20028;-65
2022/01/05 01:31:23;;;;;;;12.90;5.68;;;14.10;94.90;;;;;;5054069;28;20497;-65
2022/01/05 01:33:49;;;;;;;11.63;5.43;;;14.10;95.00;;;;;;5055955;28;20032;-67
2022/01/05 01:36:15;;;;;;;12.45;6.68;;;14.10;94.80;;;;;;5055839;28;20029;-66
2022/01/05 01:38:44;;;;;;;14.68;6.28;;;14.10;94.70;;;;;;5056113;28;20071;-65
2022/01/05 01:41:10;;;;;;;15.07;6.65;;;14.10;94.80;;;;;;5057382;28;20133;-66
2022/01/05 01:43:36;;;;;;;13.27;6.78;;;14.10;94.80;;;;;;5056992;28;20025;-67
2022/01/05 01:46:04;;;;;;;13.30;6.60;;;14.10;94.80;;;;;;5055841;28;20027;-70
2022/01/05 01:48:30;;;;;;;14.82;6.35;;;14.10;94.90;;;;;;5055179;28;20021;-70
2022/01/05 01:50:56;;;;;;;10.20;5.57;;;14.10;94.90;;;;;;5054046;28;20017;-71
2022/01/05 01:53:22;;;;;;;12.38;5.78;;;14.20;94.80;;;;;;5055025;28;20432;-68
2022/01/05 01:55:50;;;;;;;13.65;5.25;;;14.20;94.70;;;;;;5055175;28;20025;-71
2022/01/05 01:58:18;;;;;;;13.60;6.63;;;14.20;94.50;;;;;;5053682;28;20445;-68
2022/01/05 02:00:44;;;;;;;18.00;5.90;;;14.20;94.50;;;;;;5054506;28;20049;-64
2022/01/05 02:03:12;;;;;;;14.18;6.53;;;14.20;94.50;;;;;;5054942;28;20112;-67
2022/01/05 02:05:38;;;;;;;12.63;6.43;;;14.20;94.50;;;;;;5053714;28;20553;-72
2022/01/05 02:08:04;;;;;;;20.45;9.13;;;14.20;94.60;;;;;;5054495;28;20103;-64
2022/01/05 02:10:30;;;;;;;11.43;7.05;;;14.20;94.60;;;;;;5054576;28;20025;-64
2022/01/05 02:12:55;;;;;;;13.48;6.68;;;14.20;94.60;;;;;;5054661;28;20071;-70
2022/01/05 02:15:23;;;;;;;10.77;6.43;;;14.20;94.60;;;;;;5054874;28;20516;-65
2022/01/05 02:18:10;;;;;;;11.77;6.15;;;14.20;94.60;;;;;;5059298;28;20037;-70
2022/01/05 02:20:36;;;;;;;10.90;5.65;;;14.20;94.50;;;;;;5057909;28;20052;-77
2022/01/05 02:23:03;;;;;;;10.70;5.18;;;14.30;94.40;;;;;;5054833;28;20028;-65
2022/01/05 02:25:31;;;;;;;12.80;4.80;;;14.30;94.40;;;;;;5054632;28;20033;-64
2022/01/05 02:27:57;;;;;;;11.48;5.30;;;14.30;94.30;;;;;;5053189;28;20386;-75
2022/01/05 02:30:28;;;;;;;11.95;6.20;;;14.30;94.20;;;;;;5054534;28;20497;-77
2022/01/05 02:32:54;;;;;;;11.02;5.40;;;14.30;94.20;;;;;;5053138;28;20044;-75
2022/01/05 02:35:21;;;;;;;14.98;6.10;;;14.30;94.10;;;;;;5053109;28;20033;-74
2022/01/05 02:37:50;;;;;;;9.90;6.15;;;14.30;94.00;;;;;;5054051;28;20121;-72
2022/01/05 02:40:17;;;;;;;17.60;7.32;;;14.30;94.10;;;;;;5052922;28;20497;-75
2022/01/05 02:42:45;;;;;;;12.38;6.72;;;14.20;94.00;;;;;;5054050;28;20035;-72
2022/01/05 02:45:14;;;;;;;13.80;6.30;;;14.20;94.20;;;;;;5053279;28;20021;-72
2022/01/05 02:47:40;;;;;;;14.52;6.50;;;14.20;94.10;;;;;;5054051;28;20078;-66
2022/01/05 02:50:08;;;;;;;14.20;6.22;;;14.20;94.20;;;;;;5053986;28;20067;-64
2022/01/05 02:52:34;;;;;;;10.50;5.85;;;14.20;94.20;;;;;;5053967;28;20032;-76
2022/01/05 02:55:02;;;;;;;11.18;4.72;;;14.20;94.20;;;;;;5053792;28;20371;-73
2022/01/05 02:57:29;;;;;;;13.07;4.18;;;14.10;94.30;;;;;;5053776;28;20033;-76
2022/01/05 02:59:55;;;;;;;11.35;4.15;;;14.10;94.40;;;;;;5052614;28;20040;-74
2022/01/05 03:02:22;;;;;;;14.82;3.55;;;14.10;94.50;;;;;;5053517;28;20094;-72
2022/01/05 03:04:48;;;;;;;10.40;3.47;;;14.10;94.70;;;;;;5053602;28;20462;-74
2022/01/05 03:07:15;;;;;;;10.18;3.00;;;14.20;94.50;;;;;;5053730;28;20104;-75
2022/01/05 03:09:43;;;;;;;9.70;3.55;;;14.20;94.60;;;;;;5053463;28;20046;-73
2022/01/05 03:12:09;;;;;;;11.10;3.58;;;14.20;94.50;;;;;;5053365;28;20351;-73
2022/01/05 03:14:35;;;;;;;14.80;3.72;;;14.30;94.60;;;;;;5053860;28;20466;-73
2022/01/05 03:17:01;;;;;;;12.43;3.08;;;14.30;94.50;;;;;;5053266;28;20025;-68
2022/01/05 03:19:26;;;;;;;9.98;3.33;;;14.30;94.50;;;;;;5053365;28;20033;-68
2022/01/05 03:21:52;;;;;;;7.85;3.17;;;14.30;94.60;;;;;;5052011;28;20091;-64
2022/01/05 03:24:19;;;;;;;9.90;3.30;;;14.20;94.60;;;;;;5052935;28;20033;-65
2022/01/05 03:26:45;;;;;;;8.18;3.10;;;14.20;94.80;;;;;;5053715;28;20021;-71
2022/01/05 03:29:11;;;;;;;10.48;3.40;;;14.20;94.90;;;;;;5052993;28;20021;-69
2022/01/05 03:31:37;;;;;;;9.48;3.25;;;14.10;94.90;;;;;;5052798;28;20439;-64
2022/01/05 03:34:05;;;;;;;8.90;3.50;;;14.10;95.00;;;;;;5052880;28;20036;-64
2022/01/05 03:36:31;;;;;;;9.43;3.53;;;14.10;95.10;;;;;;5053560;28;20478;-68
2022/01/05 03:38:56;;;;;;;9.38;4.45;;;14.10;95.10;;;;;;5053221;28;20159;-74
2022/01/05 03:41:22;;;;;;;13.85;4.70;;;14.10;95.10;;;;;;5053230;28;20029;-75
2022/01/05 03:43:50;;;;;;;12.18;4.45;;;14.10;95.00;;;;;;5052895;28;20028;-64
2022/01/05 03:46:16;;;;;;;12.93;4.95;;;14.10;95.10;;;;;;5053099;28;20159;-65
2022/01/05 03:48:44;;;;;;;11.25;4.75;;;14.20;95.00;;;;;;5034902;28;20045;-71
2022/01/05 03:51:10;;;;;;;11.27;4.65;;;14.20;95.00;;;;;;5053199;28;20029;-71
2022/01/05 03:53:35;;;;;;;8.13;4.25;;;14.20;94.90;;;;;;5052972;28;20442;-65
2022/01/05 03:56:02;;;;;;;14.38;5.50;;;14.30;94.90;;;;;;5034937;28;20036;-64
2022/01/05 03:58:29;;;;;;;14.77;5.20;;;14.20;94.90;;;;;;5052733;28;20029;-69
2022/01/05 04:00:55;;;;;;;14.35;4.60;;;14.30;95.10;;;;;;5052622;28;20057;-74
2022/01/05 04:03:21;;;;;;;10.55;4.28;;;14.30;95.00;;;;;;5051823;28;20040;-65
2022/01/05 04:05:47;;;;;;;10.85;4.28;;;14.30;95.10;;;;;;5053060;28;20390;-70
2022/01/05 04:08:14;;;;;;;10.48;4.55;;;14.40;95.10;;;;;;5051492;28;20024;-65
2022/01/05 04:10:40;;;;;;;10.77;4.22;;;14.40;95.20;;;;;;5052821;28;20099;-71
2022/01/05 04:13:06;;;;;;;10.35;4.43;;;14.40;95.40;;;;;;5052870;28;20485;-71
2022/01/05 04:15:32;;;;;;;12.05;4.55;;;14.40;95.60;;;;;;5052668;28;20078;-66
2022/01/05 04:17:58;;;;;;;10.60;4.80;;;14.40;95.80;;;;;;5051383;28;20431;-69
2022/01/05 04:20:24;;;;;;;10.13;5.35;;;14.30;95.90;;;;;;5051423;28;20029;-74
2022/01/05 04:22:52;;;;;;;16.25;5.53;;;14.30;96.10;;;;;;5052710;28;20036;-65
2022/01/05 04:25:21;;;;;;;16.65;6.05;;;14.30;96.20;;;;;;5052645;28;20382;-65
2022/01/05 04:27:46;;;;;;;14.23;5.95;;;14.20;96.40;;;;;;5052671;28;20029;-68
2022/01/05 04:30:12;;;;;;;15.10;6.15;;;14.20;96.50;;;;;;5051536;28;20604;-66
2022/01/05 04:32:39;;;;;;;17.83;7.30;;;14.20;96.70;;;;;;5052437;28;20582;-68
2022/01/05 04:35:06;;;;;;;15.65;7.38;;;14.20;96.80;;;;;;5052699;28;20021;-69
2022/01/05 04:37:35;;;;;;;13.80;7.28;;;14.10;97.00;;;;;;5052473;28;20026;-67
2022/01/05 04:40:01;;;;;;;15.05;7.90;;;14.10;97.20;;;;;;5054151;28;20017;-68
2022/01/05 04:42:28;;;;;;;15.00;8.38;;;14.10;97.20;;;;;;5054512;28;20367;-76
2022/01/05 04:44:55;;;;;;;16.48;8.50;;;14.10;97.20;;;;;;5056236;28;20059;-65
2022/01/05 04:47:22;;;;;;;20.10;8.57;;;14.10;97.40;;;;;;5058719;28;20048;-68
2022/01/05 04:49:48;;;;;;;15.27;8.18;;;14.10;97.30;;;;;;5059087;28;20029;-67
2022/01/05 04:52:14;;;;;;;19.42;8.57;;;14.10;97.50;;;;;;5040096;28;20029;-73
2022/01/05 04:54:39;;;;;;;19.95;8.73;;;14.10;97.40;;;;;;5038857;28;20074;-78
2022/01/05 04:57:07;;;;;;;15.27;7.72;;;14.10;97.30;;;;;;5056456;28;20086;-77
2022/01/05 04:59:34;;;;;;;15.25;7.95;;;14.00;97.20;;;;;;5055886;28;20025;-68
2022/01/05 05:02:00;;;;;;;15.20;7.47;;;14.00;97.20;;;;;;5056035;28;20049;-76
2022/01/05 05:04:25;;;;;;;14.98;8.23;;;14.00;97.10;;;;;;5038325;28;20585;-74
2022/01/05 05:06:51;;;;;;;17.92;8.05;;;13.90;97.20;;;;;;5054737;28;20597;-79
2022/01/05 05:09:18;;;;;;;13.88;7.40;;;13.90;97.20;;;;;;5055988;28;20032;-74
2022/01/05 05:11:44;;;;;;;16.92;8.60;;;13.90;97.10;;;;;;5056107;28;20028;-74
2022/01/05 05:14:10;;;;;;;18.05;8.07;;;13.80;97.10;;;;;;5056089;28;20047;-68
2022/01/05 05:16:36;;;;;;;16.23;8.48;;;13.80;97.10;;;;;;5056000;28;20024;-76
2022/01/05 05:19:03;;;;;;;16.00;8.27;;;13.70;97.10;;;;;;5055607;28;20425;-71
2022/01/05 05:21:30;;;;;;;13.40;7.90;;;13.70;97.10;;;;;;5055705;28;20033;-68
2022/01/05 05:23:55;;;;;;;19.00;9.18;;;13.70;97.20;;;;;;5055954;28;20028;-69
2022/01/05 05:26:26;;;;;;;16.35;9.52;;;13.60;97.20;;;;;;5055771;28;20032;-78
2022/01/05 05:28:54;;;;;;;16.52;9.13;;;13.70;97.30;;;;;;5054387;28;20037;-76
2022/01/05 05:31:22;;;;;;;17.67;9.80;;;13.70;97.40;;;;;;5055519;28;20037;-71
2022/01/05 05:33:49;;;;;;;26.10;10.32;;;13.70;97.20;;;;;;5055648;28;20025;-65
2022/01/05 05:36:17;;;;;;;18.65;10.23;;;13.80;97.20;;;;;;5055498;28;20025;-68
2022/01/05 05:38:42;;;;;;;19.50;10.57;;;13.80;97.20;;;;;;5053913;28;20033;-70
2022/01/05 05:41:08;;;;;;;19.60;11.30;;;13.90;97.30;;;;;;5055183;28;20351;-79
2022/01/05 05:43:34;;;;;;;25.45;11.98;;;14.00;97.30;;;;;;5055454;28;20032;-65
2022/01/05 05:46:00;;;;;;;22.67;11.80;;;14.10;97.40;;;;;;5053775;28;20025;-76
2022/01/05 05:48:27;;;;;;;23.40;11.63;;;14.10;97.50;;;;;;5055170;28;20386;-76
2022/01/05 05:50:54;;;;;;;21.88;11.63;;;14.20;97.70;;;;;;5055217;28;20033;-75
2022/01/05 05:53:21;;;;;;;19.92;11.77;;;14.20;97.60;;;;;;5055176;28;20064;-72
2022/01/05 05:55:48;;;;;;;26.20;12.73;;;14.20;97.70;;;;;;5055035;28;20029;-67
2022/01/05 05:58:13;;;;;;;21.92;12.75;;;14.20;97.90;;;;;;5056469;28;20021;-72
2022/01/05 06:00:39;;;;;;;25.10;13.63;;;14.20;98.00;;;;;;5057636;28;20056;-69
2022/01/05 06:03:05;;;;;;;23.60;13.32;;;14.20;98.10;;;;;;5058488;28;20029;-74
2022/01/05 06:05:31;;;;;;;23.77;13.60;;;14.10;98.20;;;;;;5057733;28;20074;-75
2022/01/05 06:07:56;;;;;;;21.33;13.05;;;14.10;98.40;;;;;;5054362;28;20470;-70
2022/01/05 06:10:22;;;;;;;24.30;14.00;;;14.10;98.50;;;;;;5054920;28;20049;-67
2022/01/05 06:12:48;;;;;;;24.42;14.05;;;14.10;98.60;;;;;;5054917;28;20136;-76
2022/01/05 06:15:14;;;;;;;32.50;15.73;;;14.10;98.80;;;;;;5053640;28;20033;-68
2022/01/05 06:17:40;;;;;;;31.38;15.00;;;14.20;99.00;;;;;;5054675;28;20051;-77
2022/01/05 06:20:10;;;;;;;24.95;15.13;;;14.20;98.90;;;;;;5053310;28;20025;-74
2022/01/05 06:22:41;;;;;;;24.90;15.73;;;14.20;98.90;;;;;;5053328;28;20098;-65
2022/01/05 06:25:08;;;;;;;31.73;16.35;;;14.30;99.00;;;;;;5054286;28;20025;-64
2022/01/05 06:27:33;;;;;;;29.65;15.73;;;14.30;99.00;;;;;;5054406;28;20036;-64
2022/01/05 06:30:04;;;;;;;25.48;15.32;;;14.30;99.00;;;;;;5054465;28;20033;-64
2022/01/05 06:32:30;;;;;;;28.13;15.23;;;14.40;99.00;;;;;;5054293;28;20056;-76
2022/01/05 06:34:56;;;;;;;30.20;15.40;;;14.30;98.90;;;;;;5054043;28;20021;-69
2022/01/05 06:37:22;;;;;;;28.25;15.32;;;14.30;99.10;;;;;;5054592;28;20021;-67
2022/01/05 06:39:47;;;;;;;23.42;14.30;;;14.30;99.20;;;;;;5054386;28;20096;-63
2022/01/05 06:42:15;;;;;;;30.67;15.30;;;14.30;99.20;;;;;;5054088;28;20039;-65
2022/01/05 06:44:40;;;;;;;29.70;14.38;;;14.30;99.40;;;;;;5054291;28;20051;-65
2022/01/05 06:47:06;;;;;;;27.92;14.95;;;14.20;99.30;;;;;;5053973;28;20028;-64
2022/01/05 06:49:32;;;;;;;28.95;15.73;;;14.30;99.50;;;;;;5054282;28;20025;-67
2022/01/05 06:51:58;;;;;;;26.63;15.15;;;14.20;99.40;;;;;;5054008;28;20032;-64
2022/01/05 06:54:23;;;;;;;32.47;16.00;;;14.20;99.60;;;;;;5053532;28;20055;-64
2022/01/05 06:56:49;;;;;;;33.35;16.02;;;14.20;99.50;;;;;;5053655;28;20020;-67
2022/01/05 06:59:15;;;;;;;27.75;13.93;;;14.20;99.70;;;;;;5052272;28;20052;-64
2022/01/05 07:01:41;;;;;;;26.90;14.15;;;14.20;99.60;;;;;;5052920;28;20116;-64
2022/01/05 07:04:06;;;;;;;25.10;14.40;;;14.30;99.50;;;;;;5052168;28;20386;-64
2022/01/05 07:06:32;;;;;;;28.30;15.05;;;14.30;99.50;;;;;;5052733;28;20108;-67
2022/01/05 07:08:58;;;;;;;28.70;13.52;;;14.30;99.40;;;;;;5051866;28;20470;-65
2022/01/05 07:11:23;;;;;;;27.25;14.15;;;14.30;99.40;;;;;;5052047;28;20024;-63
2022/01/05 07:13:49;;;;;;;25.52;14.32;;;14.30;99.40;;;;;;5051621;28;20584;-65
2022/01/05 07:16:15;;;;;;;26.83;13.30;;;14.40;99.60;;;;;;5053249;28;20025;-65
2022/01/05 07:18:41;;;;;;;29.20;14.35;;;14.40;99.30;;;;;;5051899;28;20436;-66
2022/01/05 07:21:07;;;;;;;27.58;15.13;;;14.40;99.50;;;;;;5053191;28;20036;-63
2022/01/05 07:23:33;;;;;;;25.58;14.98;;;14.50;99.40;;;;;;5052928;28;20025;-65
2022/01/05 07:25:59;;;;;;;28.05;14.02;;;14.50;99.40;;;;;;5053006;28;20028;-66
2022/01/05 07:28:24;;;;;;;27.63;13.88;;;14.50;99.20;;;;;;5052905;28;20092;-65
2022/01/05 07:30:50;;;;;;;27.52;14.30;;;14.60;99.30;;;;;;5053114;28;20470;-64
2022/01/05 07:33:16;;;;;;;24.75;13.13;;;14.60;99.20;;;;;;5052937;28;20025;-65
2022/01/05 07:35:43;;;;;;;28.00;14.10;;;14.70;99.10;;;;;;5051602;28;20082;-69
2022/01/05 07:38:08;;;;;;;26.05;13.57;;;14.70;99.10;;;;;;5053200;28;20147;-66
2022/01/05 07:40:34;;;;;;;28.23;13.77;;;14.80;99.10;;;;;;5053062;28;20379;-79
2022/01/05 07:43:01;;;;;;;27.80;12.93;;;14.80;98.90;;;;;;5053302;28;20094;-70
2022/01/05 07:45:27;;;;;;;29.30;13.25;;;14.80;98.80;;;;;;5052744;28;20021;-65
2022/01/05 07:47:53;;;;;;;27.60;12.82;;;14.80;98.70;;;;;;5052678;28;20047;-64
2022/01/05 07:50:18;;;;;;;24.80;13.05;;;14.90;98.60;;;;;;5052736;28;20032;-71
2022/01/05 07:52:45;;;;;;;29.00;13.43;;;14.90;98.50;;;;;;5051293;28;20112;-67
2022/01/05 07:55:12;;;;;;;24.70;12.70;;;14.90;98.50;;;;;;5053320;28;20059;-65
2022/01/05 07:57:38;;;;;;;23.55;12.43;;;14.90;98.50;;;;;;5053066;28;20029;-65
2022/01/05 08:00:06;;;;;;;23.77;12.13;;;14.90;98.40;;;;;;5052896;28;20516;-64
2022/01/05 08:02:31;;;;;;;27.95;12.98;;;14.90;98.30;;;;;;5052266;28;20057;-65
2022/01/05 08:04:57;;;;;;;24.08;12.48;;;14.90;98.30;;;;;;5052498;28;20100;-66
2022/01/05 08:07:23;;;;;;;23.55;12.10;;;14.90;98.20;;;;;;5052696;28;20040;-64
2022/01/05 08:09:48;;;;;;;25.50;12.32;;;15.00;98.30;;;;;;5052467;28;20025;-66
2022/01/05 08:12:14;;;;;;;28.15;12.63;;;15.00;98.30;;;;;;5052677;28;20429;-65
2022/01/05 08:14:40;;;;;;;26.58;11.90;;;15.00;98.30;;;;;;5052203;28;20049;-67
2022/01/05 08:17:05;;;;;;;24.27;12.90;;;15.00;98.20;;;;;;5053642;28;20033;-66
2022/01/05 08:19:31;;;;;;;24.38;12.90;;;15.00;98.20;;;;;;5056656;28;20025;-65
2022/01/05 08:21:57;;;;;;;26.88;12.23;;;15.00;98.10;;;;;;5056365;28;20074;-67
2022/01/05 08:24:22;;;;;;;23.52;11.93;;;15.10;98.20;;;;;;5058682;28;20509;-64
2022/01/05 08:26:48;;;;;;;25.25;12.40;;;15.10;98.10;;;;;;5056436;28;20033;-65
2022/01/05 08:29:14;;;;;;;25.77;11.48;;;15.10;98.10;;;;;;5056273;28;20029;-65
2022/01/05 08:31:39;;;;;;;20.27;11.63;;;15.10;98.10;;;;;;5056240;28;20490;-63
2022/01/05 08:34:05;;;;;;;22.13;11.48;;;15.10;98.00;;;;;;5056070;28;20029;-68
2022/01/05 08:36:31;;;;;;;22.65;11.13;;;15.20;98.10;;;;;;5056048;28;20029;-65
2022/01/05 08:38:56;;;;;;;25.90;10.38;;;15.20;98.10;;;;;;5055991;28;20025;-64
2022/01/05 08:41:22;;;;;;;18.95;10.30;;;15.30;98.20;;;;;;5055816;28;20037;-65
2022/01/05 08:43:48;;;;;;;23.45;9.82;;;15.30;98.10;;;;;;5055834;28;20040;-64
2022/01/05 08:46:13;;;;;;;22.65;8.88;;;15.30;98.10;;;;;;5056260;28;20025;-63
2022/01/05 08:48:41;;;;;;;23.63;9.38;;;15.30;98.10;;;;;;5055650;28;20029;-66
2022/01/05 08:51:06;;;;;;;18.45;8.90;;;15.30;98.00;;;;;;5055895;28;20025;-66
2022/01/05 08:53:32;;;;;;;19.35;8.57;;;15.40;98.10;;;;;;5056065;28;20025;-65
2022/01/05 08:55:58;;;;;;;21.15;9.60;;;15.40;98.30;;;;;;5056256;28;20474;-65
2022/01/05 08:58:24;;;;;;;20.80;9.20;;;15.40;98.00;;;;;;5055846;28;20104;-67
2022/01/05 09:00:50;;;;;;;19.95;8.25;;;15.40;97.90;;;;;;5055426;28;20080;-64
2022/01/05 09:03:17;;;;;;;15.73;8.80;;;15.40;97.80;;;;;;5056408;28;20128;-66
2022/01/05 09:05:43;;;;;;;18.17;7.50;;;15.50;97.70;;;;;;5055623;28;20143;-67
2022/01/05 09:08:09;;;;;;;19.98;7.97;;;15.50;97.40;;;;;;5055758;28;20573;-64
2022/01/05 09:10:35;;;;;;;14.88;7.35;;;15.50;97.10;;;;;;5055293;28;20029;-66
2022/01/05 09:13:01;;;;;;;17.92;7.65;;;15.60;96.70;;;;;;5053927;28;20029;-67
2022/01/05 09:15:27;;;;;;;16.02;7.53;;;15.60;96.50;;;;;;5056653;28;20024;-67
2022/01/05 09:17:53;;;;;;;14.55;6.82;;;15.60;96.30;;;;;;5056520;28;20040;-71
2022/01/05 09:20:20;;;;;;;15.32;6.75;;;15.70;96.20;;;;;;5057270;28;20032;-67
2022/01/05 09:22:46;;;;;;;18.13;7.70;;;15.70;96.00;;;;;;5054934;28;20111;-67
2022/01/05 09:25:14;;;;;;;17.55;6.60;;;15.70;96.00;;;;;;5055121;28;20100;-65
2022/01/05 09:27:40;;;;;;;17.35;6.40;;;15.80;96.00;;;;;;5054898;28;20029;-67
2022/01/05 09:30:08;;;;;;;18.90;6.78;;;15.80;95.70;;;;;;5054204;28;20477;-66
2022/01/05 09:32:35;;;;;;;17.70;6.75;;;15.90;95.50;;;;;;5055007;28;20021;-68
2022/01/05 09:35:01;;;;;;;18.27;6.47;;;15.90;95.20;;;;;;5054628;28;20052;-64
2022/01/05 09:37:32;;;;;;;17.40;6.85;;;15.90;94.90;;;;;;5054889;28;20028;-65
2022/01/05 09:42:45;;;;;;;18.27;7.05;;;16.00;94.80;;;;;;5054665;28;20052;-66
2022/01/05 09:45:20;;;;;;;15.05;6.03;;;16.10;94.50;;;;;;5054772;28;20073;-73
2022/01/05 09:48:02;;;;;;;15.35;6.30;;;16.10;94.20;;;;;;5054229;28;20032;-66
2022/01/05 09:50:28;;;;;;;15.48;6.28;;;16.20;94.20;;;;;;5053117;28;20358;-67
2022/01/05 09:52:55;;;;;;;13.15;5.95;;;16.20;94.00;;;;;;5054288;28;20044;-65
2022/01/05 09:55:21;;;;;;;15.40;6.90;;;16.20;93.70;;;;;;5054348;28;20039;-65
2022/01/05 09:57:47;;;;;;;15.63;6.68;;;16.30;93.60;;;;;;5054392;28;20430;-65
2022/01/05 10:00:15;;;;;;;15.95;6.43;;;16.30;93.50;;;;;;5053990;28;20052;-66
2022/01/05 10:02:42;;;;;;;14.82;5.85;;;16.40;93.30;;;;;;5054393;28;20120;-65
2022/01/05 10:05:13;;;;;;;15.20;5.65;;;16.40;93.10;;;;;;5054461;28;20422;-66
2022/01/05 10:07:39;;;;;;;18.23;5.05;;;16.50;92.90;;;;;;5052983;28;20029;-64
2022/01/05 10:10:06;;;;;;;17.30;6.50;;;16.50;92.70;;;;;;5053953;28;20099;-65
2022/01/05 10:12:32;;;;;;;11.70;5.50;;;16.60;92.60;;;;;;5054072;28;20027;-65
2022/01/05 10:14:58;;;;;;;14.90;5.03;;;16.60;92.50;;;;;;5054451;28;20021;-65
2022/01/05 10:17:28;;;;;;;17.48;6.15;;;16.60;92.50;;;;;;5053906;28;20117;-69
2022/01/05 10:20:07;;;;;;;20.45;5.63;;;16.70;92.30;;;;;;5053818;28;20020;-67
2022/01/05 10:22:41;;;;;;;11.70;5.32;;;16.70;92.30;;;;;;5053566;28;20029;-67
2022/01/05 10:25:22;;;;;;;;;;;16.70;92.20;;;;;;5054568;28;20013;-65
2022/01/05 10:27:56;;;;;;;12.73;4.90;;;16.80;92.10;;;;;;5053844;28;19905;-66
2022/01/05 10:30:32;;;;;;;18.40;5.93;;;16.80;92.40;;;;;;5053840;28;20099;-64
2022/01/05 10:32:58;;;;;;;13.00;5.95;;;16.80;92.40;;;;;;5053935;28;20490;-65
2022/01/05 10:35:27;;;;;;;14.43;5.55;;;16.80;92.40;;;;;;5052458;28;20055;-64
2022/01/05 10:38:04;;;;;;;12.80;5.72;;;16.90;92.30;;;;;;5052192;28;20378;-67
2022/01/05 10:40:37;;;;;;;18.30;6.32;;;16.90;92.30;;;;;;5052301;28;20509;-65
2022/01/05 10:43:13;;;;;;;14.65;5.22;;;16.90;92.20;;;;;;5052094;28;20446;-65
2022/01/05 10:45:42;;;;;;;16.38;5.63;;;17.00;92.00;;;;;;5053628;28;20032;-65
2022/01/05 10:48:13;;;;;;;11.45;6.35;;;17.00;92.00;;;;;;5053552;28;20100;-65
2022/01/05 10:50:39;;;;;;;12.40;5.55;;;17.00;91.80;;;;;;5053022;28;20033;-65
2022/01/05 10:53:08;;;;;;;13.38;6.65;;;17.10;91.80;;;;;;5052671;28;20021;-66
2022/01/05 10:55:41;;;;;;;15.10;5.68;;;17.10;91.70;;;;;;5052737;28;20029;-65
2022/01/05 10:58:10;;;;;;;11.93;5.43;;;17.20;91.40;;;;;;5051903;28;20029;-65
2022/01/05 11:00:42;;;;;;;13.43;5.60;;;17.20;91.50;;;;;;5052984;28;20502;-65
2022/01/05 11:03:41;;;;;;;19.75;6.38;;;17.30;91.30;;;;;;5053165;28;20028;-65
2022/01/05 11:06:15;;;;;;;13.65;5.47;;;17.30;91.10;;;;;;5053500;28;20084;-65
2022/01/05 11:08:47;;;;;;;17.38;6.05;;;17.40;90.90;;;;;;5053005;28;20017;-65
2022/01/05 11:11:32;;;;;;;18.35;5.80;;;17.40;90.60;;;;;;5053183;28;20054;-68
2022/01/05 11:13:58;;;;;;;14.35;5.53;;;17.40;90.60;;;;;;5051554;28;20025;-65
2022/01/05 11:16:30;;;;;;;15.75;5.60;;;17.40;90.40;;;;;;5052985;28;20043;-66
2022/01/05 11:19:29;;;;;;;14.85;6.03;;;17.40;90.40;;;;;;5052847;28;20104;-67
2022/01/05 11:22:16;;;;;;;14.20;5.28;;;17.40;90.10;;;;;;5051961;28;20053;-65
2022/01/05 11:24:51;;;;;;;14.50;5.38;;;17.50;90.20;;;;;;5053119;28;20039;-66
2022/01/05 11:27:22;;;;;;;13.13;5.47;;;17.50;90.00;;;;;;5051875;28;20029;-67
2022/01/05 11:29:48;;;;;;;15.23;5.70;;;17.60;89.70;;;;;;5052874;28;20044;-66
2022/01/05 11:32:18;;;;;;;15.45;5.72;;;17.60;89.40;;;;;;5052972;28;20450;-66
2022/01/05 11:34:44;;;;;;;13.73;5.53;;;17.60;89.30;;;;;;5052749;28;20029;-65
2022/01/05 11:37:10;;;;;;;14.90;5.90;;;17.70;89.60;;;;;;5053054;28;20083;-69
2022/01/05 11:39:45;;;;;;;12.55;4.93;;;17.70;88.60;;;;;;5052574;28;20105;-68
2022/01/05 11:42:14;;;;;;;14.63;5.78;;;17.80;88.50;;;;;;5051151;28;20508;-66
2022/01/05 11:44:48;;;;;;;10.15;4.35;;;17.80;88.40;;;;;;5052608;28;20075;-66
2022/01/05 11:47:21;;;;;;;18.33;5.13;;;17.80;87.70;;;;;;5052342;28;20025;-68
2022/01/05 11:49:46;;;;;;;11.00;4.75;;;17.80;87.50;;;;;;5052968;28;20090;-68
2022/01/05 11:52:12;;;;;;;9.90;4.57;;;17.80;87.50;;;;;;5052091;28;20423;-66
2022/01/05 11:54:38;;;;;;;12.68;4.80;;;17.90;87.00;;;;;;5052473;28;20021;-65
2022/01/05 11:57:09;;;;;;;21.05;4.95;;;17.80;86.60;;;;;;5052524;28;20025;-65
2022/01/05 11:59:41;;;;;;;12.20;5.38;;;17.80;86.60;;;;;;5052173;28;20079;-65
2022/01/05 12:02:09;;;;;;;14.85;5.47;;;17.90;87.00;;;;;;5051573;28;20045;-69
2022/01/05 12:04:57;;;;;;;12.18;5.03;;;17.90;86.40;;;;;;5052101;28;20409;-66
2022/01/05 12:07:43;;;;;;;12.55;4.90;;;17.80;86.60;;;;;;5052410;28;20033;-66
2022/01/05 12:10:23;;;;;;;15.77;5.20;;;17.80;85.70;;;;;;5052141;28;20104;-67
2022/01/05 12:12:55;;;;;;;13.20;6.00;;;17.80;86.40;;;;;;5052330;28;20108;-65
2022/01/05 12:15:43;;;;;;;12.18;5.18;;;17.90;86.20;;;;;;5052039;28;20052;-69
2022/01/05 12:18:11;;;;;;;13.70;5.22;;;17.90;86.40;;;;;;5052198;28;20087;-67
2022/01/05 12:20:40;;;;;;;12.68;5.05;;;17.90;85.70;;;;;;5052001;28;20029;-65
2022/01/05 12:23:31;;;;;;;16.35;5.70;;;17.90;85.60;;;;;;5052603;28;20103;-68
2022/01/05 12:26:07;;;;;;;10.80;5.25;;;17.90;85.70;;;;;;5052224;28;20111;-66
2022/01/05 12:28:38;;;;;;;14.00;5.50;;;17.90;85.70;;;;;;5051808;28;20041;-66
2022/01/05 12:31:06;;;;;;;12.43;5.43;;;18.00;85.30;;;;;;5051811;28;20040;-66
2022/01/05 12:34:04;;;;;;;12.70;5.20;;;18.00;84.90;;;;;;5050599;28;20070;-69
2022/01/05 12:36:42;;;;;;;13.18;5.10;;;17.90;83.50;;;;;;5050124;28;20112;-66
2022/01/05 12:39:10;;;;;;;13.40;4.97;;;17.80;84.60;;;;;;5050612;28;20482;-65
2022/01/05 12:41:43;;;;;;;11.65;5.10;;;17.80;84.20;;;;;;5050067;28;20366;-67